sensor_id;sensor_type;location;lat;lon;timestamp;P1;durP1;ratioP1;P2;durP2;ratioP2
9964;SDS011;5023;53.554;9.964;2024-01-30T00:04:43;13.27;;;9.87;;
9964;SDS011;5023;53.554;9.964;2024-01-30T00:09:47;11.87;;;10.23;;
9964;SDS011;5023;53.554;9.964;2024-01-30T00:14:49;13.70;;;9.40;;
9964;SDS011;5023;53.554;9.964;2024-01-30T00:19:51;10.80;;;8.83;;
9964;SDS011;5023;53.554;9.964;2024-01-30T00:24:54;13.33;;;10.20;;
9964;SDS011;5023;53.554;9.964;2024-01-30T00:29:56;15.30;;;10.43;;
9964;SDS011;5023;53.554;9.964;2024-01-30T00:34:58;13.00;;;11.40;;
9964;SDS011;5023;53.554;9.964;2024-01-30T00:40:02;12.17;;;10.07;;
9964;SDS011;5023;53.554;9.964;2024-01-30T00:45:06;12.13;;;9.23;;
9964;SDS011;5023;53.554;9.964;2024-01-30T00:50:12;12.33;;;9.67;;
9964;SDS011;5023;53.554;9.964;2024-01-30T00:55:16;10.60;;;8.63;;
9964;SDS011;5023;53.554;9.964;2024-01-30T01:00:18;10.10;;;9.10;;
9964;SDS011;5023;53.554;9.964;2024-01-30T01:05:21;10.27;;;8.13;;
9964;SDS011;5023;53.554;9.964;2024-01-30T01:10:24;11.07;;;8.37;;
9964;SDS011;5023;53.554;9.964;2024-01-30T01:15:27;9.87;;;8.83;;
9964;SDS011;5023;53.554;9.964;2024-01-30T01:20:29;9.30;;;8.30;;
9964;SDS011;5023;53.554;9.964;2024-01-30T01:25:32;9.53;;;8.53;;
9964;SDS011;5023;53.554;9.964;2024-01-30T01:30:34;12.40;;;9.40;;
9964;SDS011;5023;53.554;9.964;2024-01-30T01:35:36;12.00;;;9.47;;
9964;SDS011;5023;53.554;9.964;2024-01-30T01:40:39;10.37;;;8.57;;
9964;SDS011;5023;53.554;9.964;2024-01-30T01:45:41;9.00;;;7.80;;
9964;SDS011;5023;53.554;9.964;2024-01-30T01:50:43;9.10;;;8.20;;
9964;SDS011;5023;53.554;9.964;2024-01-30T01:55:46;9.27;;;8.20;;
9964;SDS011;5023;53.554;9.964;2024-01-30T02:00:49;9.93;;;8.30;;
9964;SDS011;5023;53.554;9.964;2024-01-30T02:05:52;8.87;;;7.97;;
9964;SDS011;5023;53.554;9.964;2024-01-30T02:10:57;12.90;;;11.47;;
9964;SDS011;5023;53.554;9.964;2024-01-30T02:15:59;11.43;;;9.10;;
9964;SDS011;5023;53.554;9.964;2024-01-30T02:21:04;9.43;;;8.47;;
9964;SDS011;5023;53.554;9.964;2024-01-30T02:26:07;9.37;;;8.30;;
9964;SDS011;5023;53.554;9.964;2024-01-30T02:31:10;13.50;;;12.07;;
9964;SDS011;5023;53.554;9.964;2024-01-30T02:36:13;26.87;;;22.80;;
9964;SDS011;5023;53.554;9.964;2024-01-30T02:41:15;11.20;;;9.17;;
9964;SDS011;5023;53.554;9.964;2024-01-30T02:46:17;11.03;;;8.20;;
9964;SDS011;5023;53.554;9.964;2024-01-30T02:51:20;9.03;;;8.13;;
9964;SDS011;5023;53.554;9.964;2024-01-30T02:56:22;9.10;;;7.87;;
9964;SDS011;5023;53.554;9.964;2024-01-30T03:01:24;8.03;;;7.17;;
9964;SDS011;5023;53.554;9.964;2024-01-30T03:06:27;10.17;;;8.97;;
9964;SDS011;5023;53.554;9.964;2024-01-30T03:11:29;9.47;;;8.03;;
9964;SDS011;5023;53.554;9.964;2024-01-30T03:16:31;9.17;;;8.27;;
9964;SDS011;5023;53.554;9.964;2024-01-30T03:21:35;10.00;;;9.00;;
9964;SDS011;5023;53.554;9.964;2024-01-30T03:26:37;10.57;;;9.00;;
9964;SDS011;5023;53.554;9.964;2024-01-30T03:31:38;10.47;;;8.93;;
9964;SDS011;5023;53.554;9.964;2024-01-30T03:36:42;9.83;;;8.83;;
9964;SDS011;5023;53.554;9.964;2024-01-30T03:41:44;10.43;;;9.33;;
9964;SDS011;5023;53.554;9.964;2024-01-30T03:46:46;10.90;;;8.77;;
9964;SDS011;5023;53.554;9.964;2024-01-30T03:51:49;10.40;;;9.00;;
9964;SDS011;5023;53.554;9.964;2024-01-30T03:56:51;9.77;;;8.77;;
9964;SDS011;5023;53.554;9.964;2024-01-30T04:01:54;10.70;;;9.13;;
9964;SDS011;5023;53.554;9.964;2024-01-30T04:06:57;9.93;;;8.93;;
9964;SDS011;5023;53.554;9.964;2024-01-30T04:11:59;12.00;;;9.43;;
9964;SDS011;5023;53.554;9.964;2024-01-30T04:17:03;10.90;;;9.80;;
9964;SDS011;5023;53.554;9.964;2024-01-30T04:22:06;9.67;;;8.77;;
9964;SDS011;5023;53.554;9.964;2024-01-30T04:27:08;10.67;;;9.57;;
9964;SDS011;5023;53.554;9.964;2024-01-30T04:32:10;10.00;;;9.00;;
9964;SDS011;5023;53.554;9.964;2024-01-30T04:37:13;11.23;;;9.50;;
9964;SDS011;5023;53.554;9.964;2024-01-30T04:42:15;12.77;;;9.80;;
9964;SDS011;5023;53.554;9.964;2024-01-30T04:47:17;11.83;;;9.90;;
9964;SDS011;5023;53.554;9.964;2024-01-30T04:52:20;11.53;;;9.97;;
9964;SDS011;5023;53.554;9.964;2024-01-30T04:57:22;13.03;;;10.20;;
9964;SDS011;5023;53.554;9.964;2024-01-30T05:02:24;10.97;;;9.77;;
9964;SDS011;5023;53.554;9.964;2024-01-30T05:07:27;11.40;;;10.20;;
9964;SDS011;5023;53.554;9.964;2024-01-30T05:12:29;12.33;;;10.10;;
9964;SDS011;5023;53.554;9.964;2024-01-30T05:17:31;12.20;;;10.53;;
9964;SDS011;5023;53.554;9.964;2024-01-30T05:22:34;10.73;;;9.57;;
9964;SDS011;5023;53.554;9.964;2024-01-30T05:27:39;11.07;;;9.87;;
9964;SDS011;5023;53.554;9.964;2024-01-30T05:32:41;12.27;;;9.80;;
9964;SDS011;5023;53.554;9.964;2024-01-30T05:37:44;12.23;;;10.33;;
9964;SDS011;5023;53.554;9.964;2024-01-30T05:42:46;12.17;;;10.37;;
9964;SDS011;5023;53.554;9.964;2024-01-30T05:47:48;13.43;;;10.03;;
9964;SDS011;5023;53.554;9.964;2024-01-30T05:52:52;14.07;;;12.00;;
9964;SDS011;5023;53.554;9.964;2024-01-30T05:57:53;15.80;;;11.80;;
9964;SDS011;5023;53.554;9.964;2024-01-30T06:02:55;13.13;;;10.37;;
9964;SDS011;5023;53.554;9.964;2024-01-30T06:08:03;12.17;;;10.93;;
9964;SDS011;5023;53.554;9.964;2024-01-30T06:13:17;12.20;;;10.83;;
9964;SDS011;5023;53.554;9.964;2024-01-30T06:18:19;11.93;;;10.57;;
9964;SDS011;5023;53.554;9.964;2024-01-30T06:23:23;14.33;;;11.47;;
9964;SDS011;5023;53.554;9.964;2024-01-30T06:28:25;13.77;;;11.27;;
9964;SDS011;5023;53.554;9.964;2024-01-30T06:33:30;13.70;;;12.20;;
9964;SDS011;5023;53.554;9.964;2024-01-30T06:38:35;14.83;;;11.70;;
9964;SDS011;5023;53.554;9.964;2024-01-30T06:43:39;14.40;;;10.73;;
9964;SDS011;5023;53.554;9.964;2024-01-30T06:48:41;16.90;;;11.73;;
9964;SDS011;5023;53.554;9.964;2024-01-30T06:53:46;14.23;;;12.00;;
9964;SDS011;5023;53.554;9.964;2024-01-30T06:58:48;14.60;;;11.50;;
9964;SDS011;5023;53.554;9.964;2024-01-30T07:03:50;14.43;;;11.90;;
9964;SDS011;5023;53.554;9.964;2024-01-30T07:08:53;13.43;;;11.90;;
9964;SDS011;5023;53.554;9.964;2024-01-30T07:13:56;13.97;;;12.03;;
9964;SDS011;5023;53.554;9.964;2024-01-30T07:19:02;14.43;;;12.43;;
9964;SDS011;5023;53.554;9.964;2024-01-30T07:24:06;14.30;;;11.50;;
9964;SDS011;5023;53.554;9.964;2024-01-30T07:29:08;14.77;;;11.90;;
9964;SDS011;5023;53.554;9.964;2024-01-30T07:34:10;19.27;;;13.10;;
9964;SDS011;5023;53.554;9.964;2024-01-30T07:39:14;13.97;;;11.93;;
9964;SDS011;5023;53.554;9.964;2024-01-30T07:44:16;15.67;;;12.67;;
9964;SDS011;5023;53.554;9.964;2024-01-30T07:49:18;17.13;;;12.73;;
9964;SDS011;5023;53.554;9.964;2024-01-30T07:54:21;26.40;;;13.30;;
9964;SDS011;5023;53.554;9.964;2024-01-30T07:59:23;16.67;;;12.90;;
9964;SDS011;5023;53.554;9.964;2024-01-30T08:04:25;15.67;;;12.07;;
9964;SDS011;5023;53.554;9.964;2024-01-30T08:09:28;16.40;;;12.30;;
9964;SDS011;5023;53.554;9.964;2024-01-30T08:14:30;16.87;;;13.10;;
9964;SDS011;5023;53.554;9.964;2024-01-30T08:19:32;20.93;;;15.20;;
9964;SDS011;5023;53.554;9.964;2024-01-30T08:24:36;19.83;;;14.20;;
9964;SDS011;5023;53.554;9.964;2024-01-30T08:29:37;16.57;;;13.33;;
9964;SDS011;5023;53.554;9.964;2024-01-30T08:34:40;13.57;;;12.13;;
9964;SDS011;5023;53.554;9.964;2024-01-30T08:39:43;15.63;;;13.07;;
9964;SDS011;5023;53.554;9.964;2024-01-30T08:44:45;16.07;;;13.90;;
9964;SDS011;5023;53.554;9.964;2024-01-30T08:49:47;18.03;;;13.57;;
9964;SDS011;5023;53.554;9.964;2024-01-30T08:54:50;15.60;;;13.33;;
9964;SDS011;5023;53.554;9.964;2024-01-30T08:59:52;15.20;;;13.53;;
9964;SDS011;5023;53.554;9.964;2024-01-30T09:04:54;18.20;;;15.07;;
9964;SDS011;5023;53.554;9.964;2024-01-30T09:09:58;18.33;;;13.77;;
9964;SDS011;5023;53.554;9.964;2024-01-30T09:15:00;16.63;;;13.70;;
9964;SDS011;5023;53.554;9.964;2024-01-30T09:20:02;16.93;;;13.57;;
9964;SDS011;5023;53.554;9.964;2024-01-30T09:25:06;15.20;;;13.57;;
9964;SDS011;5023;53.554;9.964;2024-01-30T09:30:08;15.77;;;13.20;;
9964;SDS011;5023;53.554;9.964;2024-01-30T09:35:10;19.73;;;14.00;;
9964;SDS011;5023;53.554;9.964;2024-01-30T09:40:14;15.60;;;13.63;;
9964;SDS011;5023;53.554;9.964;2024-01-30T09:45:19;19.27;;;13.53;;
9964;SDS011;5023;53.554;9.964;2024-01-30T09:50:21;16.60;;;13.53;;
9964;SDS011;5023;53.554;9.964;2024-01-30T09:55:24;18.37;;;14.50;;
9964;SDS011;5023;53.554;9.964;2024-01-30T10:00:27;19.17;;;15.13;;
9964;SDS011;5023;53.554;9.964;2024-01-30T10:05:29;19.33;;;15.43;;
9964;SDS011;5023;53.554;9.964;2024-01-30T10:10:35;22.70;;;14.77;;
9964;SDS011;5023;53.554;9.964;2024-01-30T10:15:37;19.77;;;16.43;;
9964;SDS011;5023;53.554;9.964;2024-01-30T10:20:40;21.40;;;15.60;;
9964;SDS011;5023;53.554;9.964;2024-01-30T10:25:43;22.80;;;15.90;;
9964;SDS011;5023;53.554;9.964;2024-01-30T10:30:46;17.77;;;14.63;;
9964;SDS011;5023;53.554;9.964;2024-01-30T10:35:48;20.80;;;16.57;;
9964;SDS011;5023;53.554;9.964;2024-01-30T10:40:52;19.47;;;15.70;;
9964;SDS011;5023;53.554;9.964;2024-01-30T10:45:58;21.43;;;15.27;;
9964;SDS011;5023;53.554;9.964;2024-01-30T10:51:08;18.27;;;14.67;;
9964;SDS011;5023;53.554;9.964;2024-01-30T10:56:13;22.87;;;17.20;;
9964;SDS011;5023;53.554;9.964;2024-01-30T11:01:17;29.00;;;21.57;;
9964;SDS011;5023;53.554;9.964;2024-01-30T11:06:23;17.63;;;13.93;;
9964;SDS011;5023;53.554;9.964;2024-01-30T11:11:27;17.57;;;13.57;;
9964;SDS011;5023;53.554;9.964;2024-01-30T11:16:30;17.03;;;13.43;;
9964;SDS011;5023;53.554;9.964;2024-01-30T11:21:33;17.43;;;13.07;;
9964;SDS011;5023;53.554;9.964;2024-01-30T11:26:44;17.00;;;13.83;;
9964;SDS011;5023;53.554;9.964;2024-01-30T11:31:52;17.90;;;13.13;;
9964;SDS011;5023;53.554;9.964;2024-01-30T11:36:55;16.57;;;13.40;;
9964;SDS011;5023;53.554;9.964;2024-01-30T11:42:00;19.60;;;15.63;;
9964;SDS011;5023;53.554;9.964;2024-01-30T11:47:05;16.73;;;13.47;;
9964;SDS011;5023;53.554;9.964;2024-01-30T11:52:07;16.57;;;13.33;;
9964;SDS011;5023;53.554;9.964;2024-01-30T11:57:11;19.77;;;15.15;;
9964;SDS011;5023;53.554;9.964;2024-01-30T12:02:15;16.95;;;13.73;;
9964;SDS011;5023;53.554;9.964;2024-01-30T12:07:18;14.50;;;12.20;;
9964;SDS011;5023;53.554;9.964;2024-01-30T12:12:22;17.45;;;11.77;;
9964;SDS011;5023;53.554;9.964;2024-01-30T12:17:28;12.82;;;10.75;;
9964;SDS011;5023;53.554;9.964;2024-01-30T12:22:31;22.35;;;11.35;;
9964;SDS011;5023;53.554;9.964;2024-01-30T12:27:34;13.00;;;10.68;;
9964;SDS011;5023;53.554;9.964;2024-01-30T12:32:36;13.35;;;10.93;;
9964;SDS011;5023;53.554;9.964;2024-01-30T12:37:40;21.38;;;13.02;;
9964;SDS011;5023;53.554;9.964;2024-01-30T12:42:47;13.90;;;10.65;;
9964;SDS011;5023;53.554;9.964;2024-01-30T12:47:50;13.93;;;11.60;;
9964;SDS011;5023;53.554;9.964;2024-01-30T12:52:51;14.48;;;11.80;;
9964;SDS011;5023;53.554;9.964;2024-01-30T12:57:55;14.18;;;12.00;;
9964;SDS011;5023;53.554;9.964;2024-01-30T13:02:57;11.95;;;10.40;;
9964;SDS011;5023;53.554;9.964;2024-01-30T13:07:59;18.08;;;11.13;;
9964;SDS011;5023;53.554;9.964;2024-01-30T13:13:03;12.10;;;9.95;;
9964;SDS011;5023;53.554;9.964;2024-01-30T13:18:06;11.30;;;10.18;;
9964;SDS011;5023;53.554;9.964;2024-01-30T13:23:08;17.55;;;11.15;;
9964;SDS011;5023;53.554;9.964;2024-01-30T13:28:11;12.00;;;10.50;;
9964;SDS011;5023;53.554;9.964;2024-01-30T13:33:13;14.68;;;10.23;;
9964;SDS011;5023;53.554;9.964;2024-01-30T13:38:17;19.73;;;10.82;;
9964;SDS011;5023;53.554;9.964;2024-01-30T13:43:20;15.82;;;11.70;;
9964;SDS011;5023;53.554;9.964;2024-01-30T13:48:22;14.77;;;11.50;;
9964;SDS011;5023;53.554;9.964;2024-01-30T13:53:24;13.50;;;10.57;;
9964;SDS011;5023;53.554;9.964;2024-01-30T13:58:28;12.23;;;10.93;;
9964;SDS011;5023;53.554;9.964;2024-01-30T14:03:33;13.70;;;11.10;;
9964;SDS011;5023;53.554;9.964;2024-01-30T14:08:35;14.90;;;10.35;;
9964;SDS011;5023;53.554;9.964;2024-01-30T14:13:38;21.58;;;16.42;;
9964;SDS011;5023;53.554;9.964;2024-01-30T14:18:41;19.75;;;11.88;;
9964;SDS011;5023;53.554;9.964;2024-01-30T14:23:42;21.25;;;17.13;;
9964;SDS011;5023;53.554;9.964;2024-01-30T14:28:46;17.35;;;12.15;;
9964;SDS011;5023;53.554;9.964;2024-01-30T14:33:49;16.83;;;13.05;;
9964;SDS011;5023;53.554;9.964;2024-01-30T14:38:52;18.08;;;11.07;;
9964;SDS011;5023;53.554;9.964;2024-01-30T14:43:55;18.10;;;11.68;;
9964;SDS011;5023;53.554;9.964;2024-01-30T14:48:57;16.83;;;11.98;;
9964;SDS011;5023;53.554;9.964;2024-01-30T14:53:59;14.63;;;11.77;;
9964;SDS011;5023;53.554;9.964;2024-01-30T14:59:03;13.68;;;10.10;;
9964;SDS011;5023;53.554;9.964;2024-01-30T15:04:05;13.68;;;9.88;;
9964;SDS011;5023;53.554;9.964;2024-01-30T15:09:07;13.20;;;10.98;;
9964;SDS011;5023;53.554;9.964;2024-01-30T15:14:10;26.45;;;21.10;;
9964;SDS011;5023;53.554;9.964;2024-01-30T15:19:12;15.18;;;11.48;;
9964;SDS011;5023;53.554;9.964;2024-01-30T15:24:17;16.77;;;13.00;;
9964;SDS011;5023;53.554;9.964;2024-01-30T15:29:27;12.27;;;9.90;;
9964;SDS011;5023;53.554;9.964;2024-01-30T15:34:32;13.00;;;11.05;;
9964;SDS011;5023;53.554;9.964;2024-01-30T15:39:34;14.43;;;11.00;;
9964;SDS011;5023;53.554;9.964;2024-01-30T15:44:37;15.90;;;13.20;;
9964;SDS011;5023;53.554;9.964;2024-01-30T15:49:41;15.48;;;11.05;;
9964;SDS011;5023;53.554;9.964;2024-01-30T15:54:43;12.43;;;10.77;;
9964;SDS011;5023;53.554;9.964;2024-01-30T15:59:46;15.35;;;11.45;;
9964;SDS011;5023;53.554;9.964;2024-01-30T16:04:48;13.90;;;10.82;;
9964;SDS011;5023;53.554;9.964;2024-01-30T16:09:50;11.90;;;10.63;;
9964;SDS011;5023;53.554;9.964;2024-01-30T16:14:53;16.60;;;11.95;;
9964;SDS011;5023;53.554;9.964;2024-01-30T16:19:55;18.02;;;15.77;;
9964;SDS011;5023;53.554;9.964;2024-01-30T16:24:57;16.73;;;12.07;;
9964;SDS011;5023;53.554;9.964;2024-01-30T16:30:00;14.10;;;11.80;;
9964;SDS011;5023;53.554;9.964;2024-01-30T16:35:03;16.65;;;11.70;;
9964;SDS011;5023;53.554;9.964;2024-01-30T16:40:06;16.00;;;12.25;;
9964;SDS011;5023;53.554;9.964;2024-01-30T16:45:10;14.85;;;12.90;;
9964;SDS011;5023;53.554;9.964;2024-01-30T16:50:12;14.68;;;12.15;;
9964;SDS011;5023;53.554;9.964;2024-01-30T16:55:14;20.20;;;14.27;;
9964;SDS011;5023;53.554;9.964;2024-01-30T17:00:18;16.30;;;12.52;;
9964;SDS011;5023;53.554;9.964;2024-01-30T17:05:20;18.02;;;12.82;;
9964;SDS011;5023;53.554;9.964;2024-01-30T17:10:22;16.15;;;12.82;;
9964;SDS011;5023;53.554;9.964;2024-01-30T17:15:25;14.98;;;12.15;;
9964;SDS011;5023;53.554;9.964;2024-01-30T17:20:27;14.48;;;11.90;;
9964;SDS011;5023;53.554;9.964;2024-01-30T17:25:29;18.08;;;13.52;;
9964;SDS011;5023;53.554;9.964;2024-01-30T17:30:33;14.93;;;12.30;;
9964;SDS011;5023;53.554;9.964;2024-01-30T17:35:36;16.02;;;11.48;;
9964;SDS011;5023;53.554;9.964;2024-01-30T17:40:39;22.10;;;17.33;;
9964;SDS011;5023;53.554;9.964;2024-01-30T17:45:43;12.05;;;10.70;;
9964;SDS011;5023;53.554;9.964;2024-01-30T17:50:44;12.18;;;9.82;;
9964;SDS011;5023;53.554;9.964;2024-01-30T17:55:46;13.50;;;10.45;;
9964;SDS011;5023;53.554;9.964;2024-01-30T18:00:50;13.98;;;11.10;;
9964;SDS011;5023;53.554;9.964;2024-01-30T18:05:51;14.13;;;11.18;;
9964;SDS011;5023;53.554;9.964;2024-01-30T18:10:55;14.32;;;12.02;;
9964;SDS011;5023;53.554;9.964;2024-01-30T18:16:00;13.60;;;11.07;;
9964;SDS011;5023;53.554;9.964;2024-01-30T18:21:02;13.85;;;10.52;;
9964;SDS011;5023;53.554;9.964;2024-01-30T18:26:04;11.30;;;10.25;;
9964;SDS011;5023;53.554;9.964;2024-01-30T18:31:07;9.48;;;8.48;;
9964;SDS011;5023;53.554;9.964;2024-01-30T18:36:11;8.52;;;7.53;;
9964;SDS011;5023;53.554;9.964;2024-01-30T18:41:13;14.00;;;9.73;;
9964;SDS011;5023;53.554;9.964;2024-01-30T18:46:17;9.82;;;8.85;;
9964;SDS011;5023;53.554;9.964;2024-01-30T18:51:22;9.70;;;7.25;;
9964;SDS011;5023;53.554;9.964;2024-01-30T18:56:23;11.20;;;7.97;;
9964;SDS011;5023;53.554;9.964;2024-01-30T19:01:27;8.70;;;7.00;;
9964;SDS011;5023;53.554;9.964;2024-01-30T19:06:29;11.65;;;7.97;;
9964;SDS011;5023;53.554;9.964;2024-01-30T19:11:31;12.57;;;7.65;;
9964;SDS011;5023;53.554;9.964;2024-01-30T19:16:34;7.72;;;6.15;;
9964;SDS011;5023;53.554;9.964;2024-01-30T19:21:36;6.65;;;5.25;;
9964;SDS011;5023;53.554;9.964;2024-01-30T19:26:38;4.90;;;4.50;;
9964;SDS011;5023;53.554;9.964;2024-01-30T19:31:44;4.47;;;4.07;;
9964;SDS011;5023;53.554;9.964;2024-01-30T19:36:46;4.30;;;3.65;;
9964;SDS011;5023;53.554;9.964;2024-01-30T19:41:48;3.55;;;3.25;;
9964;SDS011;5023;53.554;9.964;2024-01-30T19:46:52;4.32;;;3.10;;
9964;SDS011;5023;53.554;9.964;2024-01-30T19:51:53;5.28;;;4.05;;
9964;SDS011;5023;53.554;9.964;2024-01-30T19:56:55;3.72;;;3.30;;
9964;SDS011;5023;53.554;9.964;2024-01-30T20:01:59;4.00;;;3.53;;
9964;SDS011;5023;53.554;9.964;2024-01-30T20:07:01;3.67;;;3.42;;
9964;SDS011;5023;53.554;9.964;2024-01-30T20:12:03;4.78;;;4.30;;
9964;SDS011;5023;53.554;9.964;2024-01-30T20:17:06;4.07;;;3.78;;
9964;SDS011;5023;53.554;9.964;2024-01-30T20:22:13;8.95;;;5.50;;
9964;SDS011;5023;53.554;9.964;2024-01-30T20:27:15;5.90;;;5.37;;
9964;SDS011;5023;53.554;9.964;2024-01-30T20:32:19;5.35;;;4.93;;
9964;SDS011;5023;53.554;9.964;2024-01-30T20:37:21;6.10;;;5.50;;
9964;SDS011;5023;53.554;9.964;2024-01-30T20:42:22;5.90;;;5.40;;
9964;SDS011;5023;53.554;9.964;2024-01-30T20:47:26;8.67;;;5.43;;
9964;SDS011;5023;53.554;9.964;2024-01-30T20:52:28;6.03;;;5.53;;
9964;SDS011;5023;53.554;9.964;2024-01-30T20:57:29;5.80;;;5.30;;
9964;SDS011;5023;53.554;9.964;2024-01-30T21:02:34;7.33;;;6.67;;
9964;SDS011;5023;53.554;9.964;2024-01-30T21:07:37;6.13;;;5.63;;
9964;SDS011;5023;53.554;9.964;2024-01-30T21:12:41;5.77;;;5.27;;
9964;SDS011;5023;53.554;9.964;2024-01-30T21:17:44;5.70;;;5.20;;
9964;SDS011;5023;53.554;9.964;2024-01-30T21:22:46;5.50;;;5.00;;
9964;SDS011;5023;53.554;9.964;2024-01-30T21:27:49;4.03;;;3.73;;
9964;SDS011;5023;53.554;9.964;2024-01-30T21:32:52;4.37;;;3.73;;
9964;SDS011;5023;53.554;9.964;2024-01-30T21:37:55;3.47;;;3.27;;
9964;SDS011;5023;53.554;9.964;2024-01-30T21:42:57;3.93;;;3.57;;
9964;SDS011;5023;53.554;9.964;2024-01-30T21:48:00;3.50;;;3.27;;
9964;SDS011;5023;53.554;9.964;2024-01-30T21:53:02;3.07;;;2.87;;
9964;SDS011;5023;53.554;9.964;2024-01-30T21:58:05;4.30;;;3.90;;
9964;SDS011;5023;53.554;9.964;2024-01-30T22:03:08;4.40;;;4.00;;
9964;SDS011;5023;53.554;9.964;2024-01-30T22:08:10;4.90;;;4.50;;
9964;SDS011;5023;53.554;9.964;2024-01-30T22:13:12;3.43;;;3.13;;
9964;SDS011;5023;53.554;9.964;2024-01-30T22:18:15;3.90;;;3.60;;
9964;SDS011;5023;53.554;9.964;2024-01-30T22:23:17;4.37;;;3.93;;
9964;SDS011;5023;53.554;9.964;2024-01-30T22:28:19;4.13;;;3.83;;
9964;SDS011;5023;53.554;9.964;2024-01-30T22:33:23;4.27;;;3.27;;
9964;SDS011;5023;53.554;9.964;2024-01-30T22:38:25;4.00;;;3.50;;
9964;SDS011;5023;53.554;9.964;2024-01-30T22:43:29;2.90;;;2.70;;
9964;SDS011;5023;53.554;9.964;2024-01-30T22:48:34;4.37;;;3.93;;
9964;SDS011;5023;53.554;9.964;2024-01-30T22:53:36;4.40;;;4.00;;
9964;SDS011;5023;53.554;9.964;2024-01-30T22:58:38;4.63;;;3.80;;
9964;SDS011;5023;53.554;9.964;2024-01-30T23:03:42;6.67;;;2.53;;
9964;SDS011;5023;53.554;9.964;2024-01-30T23:08:44;4.53;;;2.50;;
9964;SDS011;5023;53.554;9.964;2024-01-30T23:13:46;5.67;;;3.60;;
9964;SDS011;5023;53.554;9.964;2024-01-30T23:18:49;6.73;;;4.37;;
9964;SDS011;5023;53.554;9.964;2024-01-30T23:23:51;3.13;;;2.03;;
9964;SDS011;5023;53.554;9.964;2024-01-30T23:28:53;3.97;;;2.20;;
9964;SDS011;5023;53.554;9.964;2024-01-30T23:33:56;4.33;;;2.73;;
9964;SDS011;5023;53.554;9.964;2024-01-30T23:38:58;2.77;;;2.53;;
9964;SDS011;5023;53.554;9.964;2024-01-30T23:44:00;4.00;;;2.40;;
9964;SDS011;5023;53.554;9.964;2024-01-30T23:49:03;6.37;;;3.30;;
9964;SDS011;5023;53.554;9.964;2024-01-30T23:54:05;5.97;;;2.67;;
9964;SDS011;5023;53.554;9.964;2024-01-30T23:59:09;7.77;;;4.30;;
